Terminal Aerodrome Forecast
Issued by NWS Greer, SC

Home | Current Version | Previous Version | Text Only | Print | Product List | Glossary On
Versions: 1 2 3 4 5 6 7 8 9 10 11 12 13 14 15 16 17 18 19 20 21 22 23 24 25 26 27 28 29 30 31 32 33 34 35 36 37 38 39 40 41 42 43 44
000
FTUS42 KGSP 282334
TAFAVL
TAF
KAVL 282334Z 2900/2924 18003KT P6SM FEW070 OVC150
     FM290500 19003KT 5SM BR BKN050
     FM291000 00000KT 2SM BR SCT003 BKN008
     FM291300 15003KT P6SM BKN010
     FM291600 17006KT P6SM SCT025 BKN035 PROB30 2918/2922 4SM TSRA
      BKN025CB=

USA.gov is the U.S. government's official web portal to all federal, state and local government web resources and services.